logo dgac
Lunes 20 de Mayo del 2019
Buscar por aerodromo o helipuerto
Ingrese nombre de aeródromo, localidad o designador OACI:
METAR del 20-05-2019 a las 13:00 UTC
METAR SCAP 201300Z 08004KT 9999 -SHDZ OVC003 02/00 Q1033
Viento: dirección 080 grados, velocidad 4 nudos
Visibilidad: 10 km o más
Débil ChubascosLLovizna
Nubes: Cubierto a 300 pies sobre el nivel del aeródromo
Temperatura: 2 °C
Rocío: 0 °C
Humedad_relativa: 87%
Presión: 1033 hPa
METAR del 20-05-2019 a las 13:00 UTC
METAR SCAP 201300Z 08004KT 9999 -SHDZ OVC003 02/00 Q1033
Viento: dirección 080 grados, velocidad 4 nudos
Visibilidad: 10 km o más
Débil ChubascosLLovizna
Nubes: Cubierto a 300 pies sobre el nivel del aeródromo
Temperatura: 2 °C
Rocío: 0 °C
Humedad_relativa: 87%
Presión: 1033 hPa
METAR del 20-05-2019 a las 12:00 UTC
METAR SCAP 201200Z AUTO VRB02KT 9999 ////// 02/00 Q1032
Nan: AUTO
Viento: dirección variable, velocidad 2 nudos
Visibilidad: 10 km o más
Nan: //////
Temperatura: 2 °C
Rocío: 0 °C
Humedad_relativa: 87%
Presión: 1032 hPa
METAR del 20-05-2019 a las 12:00 UTC
METAR SCAP 201200Z AUTO VRB02KT 9999 ////// 02/00 Q1032
Nan: AUTO
Viento: dirección variable, velocidad 2 nudos
Visibilidad: 10 km o más
Nan: //////
Temperatura: 2 °C
Rocío: 0 °C
Humedad_relativa: 87%
Presión: 1032 hPa
METAR del 20-05-2019 a las 11:00 UTC
METAR SCAP 201100Z AUTO VRB02KT 9999 ////// 02/01 Q1032
Nan: AUTO
Viento: dirección variable, velocidad 2 nudos
Visibilidad: 10 km o más
Nan: //////
Temperatura: 2 °C
Rocío: 1 °C
Humedad_relativa: 93%
Presión: 1032 hPa
METAR del 20-05-2019 a las 10:00 UTC
METAR SCAP 201000Z AUTO VRB02KT 9999 ////// 02/01 Q1031
Nan: AUTO
Viento: dirección variable, velocidad 2 nudos
Visibilidad: 10 km o más
Nan: //////
Temperatura: 2 °C
Rocío: 1 °C
Humedad_relativa: 93%
Presión: 1031 hPa
METAR del 20-05-2019 a las 09:00 UTC
METAR SCAP 200900Z AUTO 09003KT 050V140 9999 ////// 03/01 Q1031
Nan: AUTO
Viento: dirección 090 grados, velocidad 3 nudos
Viento con dirección variable entre 050 y 140 grados
Visibilidad: 10 km o más
Nan: //////
Temperatura: 3 °C
Rocío: 1 °C
Humedad_relativa: 87%
Presión: 1031 hPa
METAR del 20-05-2019 a las 08:00 UTC
METAR SCAP 200800Z AUTO VRB02KT 9999 ////// 03/01 Q1030
Nan: AUTO
Viento: dirección variable, velocidad 2 nudos
Visibilidad: 10 km o más
Nan: //////
Temperatura: 3 °C
Rocío: 1 °C
Humedad_relativa: 87%
Presión: 1030 hPa
METAR del 20-05-2019 a las 07:00 UTC
METAR SCAP 200700Z AUTO VRB02KT 9999 ////// 03/02 Q1030
Nan: AUTO
Viento: dirección variable, velocidad 2 nudos
Visibilidad: 10 km o más
Nan: //////
Temperatura: 3 °C
Rocío: 2 °C
Humedad_relativa: 93%
Presión: 1030 hPa
METAR del 20-05-2019 a las 06:00 UTC
METAR SCAP 200600Z AUTO 03001KT 9999 ////// 03/02 Q1030
Nan: AUTO
Viento: dirección 030 grados, velocidad 1 nudos
Visibilidad: 10 km o más
Nan: //////
Temperatura: 3 °C
Rocío: 2 °C
Humedad_relativa: 93%
Presión: 1030 hPa